• Join FlightAware (Why Join?)
  • Login
  • US Flag 
11:40PM EDT


 

Airport Tracker/Info


-or-


 

Live Flight TrackerFlight Track Log ✈ CTL312 ✈ 22-Jul-2013 ✈ KBKL - KHAO

Flight Track Log - Related Links

Times and Time Zones

All times are in EDT time to prevent confusion due to time zone crossing. See the CTL312 flight status page for this flight to view local times or setup timezone preferences in your user account.

Time Position Orientation Groundspeed Altitude Reporting Facility
EDT Latitude Longitude Course Direction KTS MPH feet Rate Location/Type
06:23PM 41.5358 -81.6761 344° North 130 150 1,200  Level Cleveland Center
06:24PM 41.5731 -81.6906 344° North 149 171 2,000 660 Climbing Cleveland Center
06:25PM 41.6186 -81.7247 331° Northwest 170 196 2,700 540 Climbing Cleveland Center
06:26PM 41.6433 -81.7556 317° Northwest 169 194 3,100 540 Climbing Cleveland Center
06:27PM 41.6783 -81.7953 320° Northwest 169 194 3,700 600 Climbing Cleveland Center
06:28PM 41.7114 -81.8347 318° Northwest 164 189 4,400 660 Climbing Cleveland Center
06:29PM 41.7422 -81.8744 316° Northwest 159 183 5,100 600 Climbing Cleveland Center
06:30PM 41.7772 -81.9142 320° Northwest 159 183 5,600 480 Climbing Cleveland Center
06:31PM 41.8100 -81.9536 318° Northwest 159 183 6,100 240 Climbing Cleveland Center
06:32PM 41.8428 -82.0019 312° West 164 189 6,100  Level Cleveland Center
06:33PM 41.8775 -82.0528 313° West 175 201 6,100  Level Cleveland Center
06:34PM 41.9189 -82.0900 326° Northwest 180 207 6,100 -60 Level Cleveland Center
06:35PM 41.9556 -82.1383 316° Northwest 186 214 6,000  Descending Cleveland Center
06:36PM 41.9967 -82.1814 322° Northwest 186 214 6,100  Climbing Cleveland Center
06:37PM 42.0400 -82.2103 334° Northwest 181 208 6,100  Level Cleveland Center
06:38PM 42.0792 -82.2561 319° Northwest 176 203 6,200  Climbing Cleveland Center
06:39PM 42.1139 -82.2961 319° Northwest 187 215 6,200 -120 Level Cleveland Center
06:39PM 42.1303 -82.3189 314° West 181 208 6,100 -120 Descending Cleveland Center
06:40PM 42.1528 -82.3478 316° Northwest 186 214 6,100  Level Cleveland Center
06:41PM 42.1939 -82.3908 322° Northwest 186 214 6,100  Level Cleveland Center
06:42PM 42.2328 -82.4339 321° Northwest 186 214 6,100  Level Cleveland Center
06:43PM 42.2736 -82.4828 318° Northwest 186 214 6,100  Level Cleveland Center
06:44PM 42.2961 -82.5061 323° Northwest 186 214 6,100  Level Cleveland Center
06:45PM 42.3433 -82.5553 322° Northwest 187 215 6,100  Level Cleveland Center
06:46PM 42.3717 -82.5956 314° West 186 214 6,100  Level Cleveland Center
06:46PM 42.3900 -82.6186 317° Northwest 186 214 6,100  Level Cleveland Center
06:47PM 42.4125 -82.6417 323° Northwest 185 213 6,100  Level Cleveland Center
06:48PM 42.4472 -82.6878 316° Northwest 181 208 6,100  Level Cleveland Center
06:49PM 42.4900 -82.7400 318° Northwest 182 209 6,100  Level Cleveland Center
06:50PM 42.5286 -82.7864 318° Northwest 181 208 6,100  Level Cleveland Center
06:51PM 42.5633 -82.8300 317° Northwest 177 204 6,100  Level Cleveland Center
06:52PM 42.6000 -82.8736 319° Northwest 179 206 6,100  Level Cleveland Center
06:53PM 42.6386 -82.9200 319° Northwest 180 207 6,100  Level Cleveland Center
06:54PM 42.6775 -82.9611 322° Northwest 180 207 6,100  Level Cleveland Center
06:55PM 42.7161 -83.0078 318° Northwest 181 208 6,100  Level Cleveland Center
06:57PM 42.6354 -83.0462 199° South  Level Estimated
07:04PM 42.3298 -83.1909 199° South  Level Estimated
07:05PM 42.2861 -83.2114 199° South  Level Estimated
07:06PM 42.2424 -83.2319 199° South  Level Estimated
07:07PM 42.1987 -83.2524 199° South  Level Estimated
07:08PM 42.1550 -83.2729 199° South  Level Estimated
07:09PM 42.1114 -83.2933 199° South  Level Estimated
07:10PM 42.0677 -83.3137 199° South  Level Estimated
07:11PM 42.0240 -83.3341 199° South  Level Estimated
07:12PM 41.9803 -83.3544 199° South  Level Estimated
07:13PM 41.9366 -83.3748 199° South  Level Estimated
07:14PM 41.8929 -83.3951 199° South  Level Estimated
07:15PM 41.8492 -83.4153 199° South  Level Estimated
07:16PM 41.8054 -83.4355 199° South  Level Estimated
07:17PM 41.7617 -83.4558 199° South  Level Estimated
07:18PM 41.7180 -83.4759 199° South  Level Estimated
07:19PM 41.6743 -83.4961 199° South  Level Estimated
07:20PM 41.6306 -83.5162 199° South  Level Estimated
07:21PM 41.5868 -83.5363 199° South  Level Estimated
07:22PM 41.5431 -83.5564 199° South  Level Estimated
07:23PM 41.4994 -83.5764 199° South  Level Estimated
07:24PM 41.4556 -83.5965 199° South  Level Estimated
07:25PM 41.4119 -83.6164 199° South  Level Estimated
07:26PM 41.3681 -83.6364 199° South  Level Estimated
07:27PM 41.3244 -83.6563 199° South  Level Estimated
07:28PM 41.2806 -83.6762 199° South  Level Estimated
07:29PM 41.2368 -83.6961 199° South  Level Estimated
07:30PM 41.1931 -83.7160 199° South  Level Estimated
07:31PM 41.1493 -83.7358 199° South  Level Estimated
07:32PM 41.1055 -83.7556 199° South  Level Estimated
07:33PM 41.0618 -83.7754 199° South  Level Estimated
07:34PM 41.0180 -83.7952 199° South  Level Estimated
07:35PM 40.9742 -83.8149 199° South  Level Estimated
07:36PM 40.9304 -83.8346 199° South  Level Estimated
07:37PM 40.8866 -83.8542 199° South  Level Estimated
07:38PM 40.8428 -83.8739 199° South  Level Estimated
07:39PM 40.7991 -83.8935 199° South  Level Estimated
07:40PM 40.7553 -83.9131 199° South  Level Estimated
07:41PM 40.7115 -83.9327 199° South  Level Estimated
07:42PM 40.6677 -83.9522 199° South  Level Estimated
07:43PM 40.6239 -83.9717 199° South  Level Estimated
07:44PM 40.5800 -83.9912 199° South  Level Estimated
07:45PM 40.5362 -84.0107 199° South  Level Estimated
07:46PM 40.4924 -84.0302 199° South  Level Estimated
07:47PM 40.4486 -84.0496 199° South  Level Estimated
07:48PM 40.4048 -84.0690 199° South  Level Estimated
07:49PM 40.3609 -84.0883 199° South  Level Estimated
07:50PM 40.3171 -84.1077 199° South  Level Estimated
07:51PM 40.2733 -84.1270 199° South  Level Estimated
07:52PM 40.2295 -84.1463 199° South  Level Estimated
07:53PM 40.1856 -84.1656 199° South  Level Estimated
07:54PM 40.1418 -84.1848 199° South  Level Estimated
07:55PM 40.0979 -84.2040 199° South  Level Estimated
07:56PM 40.0541 -84.2232 199° South  Level Estimated
07:57PM 40.0102 -84.2424 199° South  Level Estimated
07:58PM 39.9664 -84.2615 198° South  Level Estimated
07:59PM 39.9225 -84.2806 198° South  Level Estimated
08:00PM 39.8787 -84.2997 198° South  Level Estimated
08:01PM 39.8348 -84.3188 198° South  Level Estimated
08:02PM 39.7909 -84.3378 198° South  Level Estimated
08:03PM 39.7471 -84.3568 198° South  Level Estimated
08:04PM 39.7032 -84.3758 198° South  Level Estimated
08:05PM 39.6593 -84.3948 198° South  Level Estimated
08:06PM 39.6154 -84.4138 198° South  Level Estimated